sensor_id;sensor_type;location;lat;lon;timestamp;P1;durP1;ratioP1;P2;durP2;ratioP2
78985;SDS011;68384;55.750;48.746;2023-07-31T00:00:35;6.18;;;4.95;;
78985;SDS011;68384;55.750;48.746;2023-07-31T00:01:38;6.15;;;5.07;;
78985;SDS011;68384;55.750;48.746;2023-07-31T00:02:42;7.55;;;5.13;;
78985;SDS011;68384;55.750;48.746;2023-07-31T00:03:45;12.27;;;5.32;;
78985;SDS011;68384;55.750;48.746;2023-07-31T00:04:49;6.82;;;5.22;;
78985;SDS011;68384;55.750;48.746;2023-07-31T00:05:52;5.78;;;4.47;;
78985;SDS011;68384;55.750;48.746;2023-07-31T00:06:56;8.13;;;5.07;;
78985;SDS011;68384;55.750;48.746;2023-07-31T00:07:59;5.40;;;4.50;;
78985;SDS011;68384;55.750;48.746;2023-07-31T00:09:02;7.28;;;4.82;;
78985;SDS011;68384;55.750;48.746;2023-07-31T00:10:06;7.00;;;4.28;;
78985;SDS011;68384;55.750;48.746;2023-07-31T00:11:10;5.80;;;4.72;;
78985;SDS011;68384;55.750;48.746;2023-07-31T00:12:14;6.90;;;4.15;;
78985;SDS011;68384;55.750;48.746;2023-07-31T00:13:18;6.13;;;4.43;;
78985;SDS011;68384;55.750;48.746;2023-07-31T00:14:21;5.57;;;4.60;;
78985;SDS011;68384;55.750;48.746;2023-07-31T00:15:25;7.53;;;4.47;;
78985;SDS011;68384;55.750;48.746;2023-07-31T00:16:28;7.75;;;4.70;;
78985;SDS011;68384;55.750;48.746;2023-07-31T00:17:32;7.28;;;4.32;;
78985;SDS011;68384;55.750;48.746;2023-07-31T00:18:35;5.35;;;4.22;;
78985;SDS011;68384;55.750;48.746;2023-07-31T00:19:39;5.43;;;4.10;;
78985;SDS011;68384;55.750;48.746;2023-07-31T00:20:42;5.45;;;4.22;;
78985;SDS011;68384;55.750;48.746;2023-07-31T00:21:46;6.00;;;4.90;;
78985;SDS011;68384;55.750;48.746;2023-07-31T00:22:49;9.43;;;5.18;;
78985;SDS011;68384;55.750;48.746;2023-07-31T00:23:52;7.07;;;4.93;;
78985;SDS011;68384;55.750;48.746;2023-07-31T00:24:55;6.75;;;5.47;;
78985;SDS011;68384;55.750;48.746;2023-07-31T00:26:00;7.45;;;5.65;;
78985;SDS011;68384;55.750;48.746;2023-07-31T00:27:03;8.02;;;5.72;;
78985;SDS011;68384;55.750;48.746;2023-07-31T00:28:09;7.70;;;6.50;;
78985;SDS011;68384;55.750;48.746;2023-07-31T00:29:13;8.88;;;6.40;;
78985;SDS011;68384;55.750;48.746;2023-07-31T00:30:16;9.05;;;6.10;;
78985;SDS011;68384;55.750;48.746;2023-07-31T00:31:20;9.15;;;6.50;;
78985;SDS011;68384;55.750;48.746;2023-07-31T00:32:22;7.82;;;5.80;;
78985;SDS011;68384;55.750;48.746;2023-07-31T00:33:27;7.65;;;6.32;;
78985;SDS011;68384;55.750;48.746;2023-07-31T00:34:30;7.95;;;6.45;;
78985;SDS011;68384;55.750;48.746;2023-07-31T00:35:34;8.52;;;6.38;;
78985;SDS011;68384;55.750;48.746;2023-07-31T00:36:37;7.93;;;5.50;;
78985;SDS011;68384;55.750;48.746;2023-07-31T00:37:41;7.07;;;5.85;;
78985;SDS011;68384;55.750;48.746;2023-07-31T00:38:44;7.22;;;5.35;;
78985;SDS011;68384;55.750;48.746;2023-07-31T00:39:48;9.90;;;5.80;;
78985;SDS011;68384;55.750;48.746;2023-07-31T00:40:50;7.22;;;4.88;;
78985;SDS011;68384;55.750;48.746;2023-07-31T00:41:54;5.57;;;4.70;;
78985;SDS011;68384;55.750;48.746;2023-07-31T00:42:57;7.38;;;4.50;;
78985;SDS011;68384;55.750;48.746;2023-07-31T00:44:05;6.13;;;4.63;;
78985;SDS011;68384;55.750;48.746;2023-07-31T00:45:08;6.55;;;4.70;;
78985;SDS011;68384;55.750;48.746;2023-07-31T00:46:13;6.78;;;4.55;;
78985;SDS011;68384;55.750;48.746;2023-07-31T00:47:15;7.00;;;4.47;;
78985;SDS011;68384;55.750;48.746;2023-07-31T00:48:19;6.32;;;3.55;;
78985;SDS011;68384;55.750;48.746;2023-07-31T00:49:23;5.65;;;3.97;;
78985;SDS011;68384;55.750;48.746;2023-07-31T00:50:27;5.22;;;3.75;;
78985;SDS011;68384;55.750;48.746;2023-07-31T00:51:32;7.32;;;4.03;;
78985;SDS011;68384;55.750;48.746;2023-07-31T00:52:36;4.25;;;3.45;;
78985;SDS011;68384;55.750;48.746;2023-07-31T00:53:39;6.63;;;4.00;;
78985;SDS011;68384;55.750;48.746;2023-07-31T00:54:45;6.18;;;3.95;;
78985;SDS011;68384;55.750;48.746;2023-07-31T00:55:48;4.18;;;3.58;;
78985;SDS011;68384;55.750;48.746;2023-07-31T00:56:52;4.40;;;3.70;;
78985;SDS011;68384;55.750;48.746;2023-07-31T00:57:56;4.70;;;3.60;;
78985;SDS011;68384;55.750;48.746;2023-07-31T00:59:00;3.80;;;3.17;;
78985;SDS011;68384;55.750;48.746;2023-07-31T01:00:05;4.93;;;3.58;;
78985;SDS011;68384;55.750;48.746;2023-07-31T01:01:12;5.25;;;3.30;;
78985;SDS011;68384;55.750;48.746;2023-07-31T01:02:15;5.32;;;3.60;;
78985;SDS011;68384;55.750;48.746;2023-07-31T01:03:20;6.22;;;3.85;;
78985;SDS011;68384;55.750;48.746;2023-07-31T01:04:22;4.82;;;3.05;;
78985;SDS011;68384;55.750;48.746;2023-07-31T01:05:29;3.72;;;3.00;;
78985;SDS011;68384;55.750;48.746;2023-07-31T01:06:45;4.40;;;3.70;;
78985;SDS011;68384;55.750;48.746;2023-07-31T01:07:59;5.03;;;3.22;;
78985;SDS011;68384;55.750;48.746;2023-07-31T01:09:08;4.15;;;3.28;;
78985;SDS011;68384;55.750;48.746;2023-07-31T01:10:21;3.95;;;3.38;;
78985;SDS011;68384;55.750;48.746;2023-07-31T01:11:28;5.50;;;3.13;;
78985;SDS011;68384;55.750;48.746;2023-07-31T01:12:34;5.50;;;3.10;;
78985;SDS011;68384;55.750;48.746;2023-07-31T01:13:39;4.15;;;3.15;;
78985;SDS011;68384;55.750;48.746;2023-07-31T01:14:50;4.78;;;3.55;;
78985;SDS011;68384;55.750;48.746;2023-07-31T01:15:55;4.40;;;2.95;;
78985;SDS011;68384;55.750;48.746;2023-07-31T01:17:00;3.95;;;3.40;;
78985;SDS011;68384;55.750;48.746;2023-07-31T01:18:03;3.90;;;3.15;;
78985;SDS011;68384;55.750;48.746;2023-07-31T01:19:07;6.32;;;3.15;;
78985;SDS011;68384;55.750;48.746;2023-07-31T01:20:13;4.50;;;3.80;;
78985;SDS011;68384;55.750;48.746;2023-07-31T01:21:28;4.00;;;3.55;;
78985;SDS011;68384;55.750;48.746;2023-07-31T01:23:04;5.03;;;3.63;;
78985;SDS011;68384;55.750;48.746;2023-07-31T01:24:28;5.80;;;3.55;;
78985;SDS011;68384;55.750;48.746;2023-07-31T01:27:14;4.95;;;2.80;;
78985;SDS011;68384;55.750;48.746;2023-07-31T01:28:24;4.78;;;3.20;;
78985;SDS011;68384;55.750;48.746;2023-07-31T01:29:35;4.03;;;2.88;;
78985;SDS011;68384;55.750;48.746;2023-07-31T01:30:41;6.30;;;3.15;;
78985;SDS011;68384;55.750;48.746;2023-07-31T01:31:49;5.82;;;2.90;;
78985;SDS011;68384;55.750;48.746;2023-07-31T01:32:55;4.07;;;3.03;;
78985;SDS011;68384;55.750;48.746;2023-07-31T01:34:01;4.47;;;2.88;;
78985;SDS011;68384;55.750;48.746;2023-07-31T01:36:08;3.95;;;2.50;;
78985;SDS011;68384;55.750;48.746;2023-07-31T01:37:11;3.28;;;2.53;;
78985;SDS011;68384;55.750;48.746;2023-07-31T01:38:15;4.20;;;2.88;;
78985;SDS011;68384;55.750;48.746;2023-07-31T01:39:22;3.05;;;2.53;;
78985;SDS011;68384;55.750;48.746;2023-07-31T01:40:26;4.32;;;2.97;;
78985;SDS011;68384;55.750;48.746;2023-07-31T01:41:30;3.67;;;2.67;;
78985;SDS011;68384;55.750;48.746;2023-07-31T01:42:34;3.95;;;2.80;;
78985;SDS011;68384;55.750;48.746;2023-07-31T01:43:37;4.90;;;2.92;;
78985;SDS011;68384;55.750;48.746;2023-07-31T01:44:41;6.45;;;2.75;;
78985;SDS011;68384;55.750;48.746;2023-07-31T01:45:44;5.65;;;2.95;;
78985;SDS011;68384;55.750;48.746;2023-07-31T01:46:47;7.35;;;2.53;;
78985;SDS011;68384;55.750;48.746;2023-07-31T01:47:51;3.67;;;2.80;;
78985;SDS011;68384;55.750;48.746;2023-07-31T01:48:54;6.07;;;2.60;;
78985;SDS011;68384;55.750;48.746;2023-07-31T01:49:59;4.10;;;2.83;;
78985;SDS011;68384;55.750;48.746;2023-07-31T01:51:01;3.72;;;3.10;;
78985;SDS011;68384;55.750;48.746;2023-07-31T01:52:06;3.65;;;2.85;;
78985;SDS011;68384;55.750;48.746;2023-07-31T01:53:09;4.63;;;2.70;;
78985;SDS011;68384;55.750;48.746;2023-07-31T01:54:14;3.00;;;2.47;;
78985;SDS011;68384;55.750;48.746;2023-07-31T01:55:17;4.68;;;2.90;;
78985;SDS011;68384;55.750;48.746;2023-07-31T01:56:21;5.15;;;3.00;;
78985;SDS011;68384;55.750;48.746;2023-07-31T01:57:25;3.78;;;2.42;;
78985;SDS011;68384;55.750;48.746;2023-07-31T01:58:29;4.85;;;3.35;;
78985;SDS011;68384;55.750;48.746;2023-07-31T01:59:32;3.05;;;2.40;;
78985;SDS011;68384;55.750;48.746;2023-07-31T02:00:36;5.20;;;2.60;;
78985;SDS011;68384;55.750;48.746;2023-07-31T02:01:39;4.63;;;3.00;;
78985;SDS011;68384;55.750;48.746;2023-07-31T02:02:43;5.90;;;2.78;;
78985;SDS011;68384;55.750;48.746;2023-07-31T02:03:46;4.43;;;2.35;;
78985;SDS011;68384;55.750;48.746;2023-07-31T02:04:50;3.83;;;2.78;;
78985;SDS011;68384;55.750;48.746;2023-07-31T02:05:53;3.50;;;2.60;;
78985;SDS011;68384;55.750;48.746;2023-07-31T02:07:00;4.13;;;2.47;;
78985;SDS011;68384;55.750;48.746;2023-07-31T02:08:03;4.22;;;2.75;;
78985;SDS011;68384;55.750;48.746;2023-07-31T02:09:07;4.60;;;2.88;;
78985;SDS011;68384;55.750;48.746;2023-07-31T02:10:10;6.30;;;3.40;;
78985;SDS011;68384;55.750;48.746;2023-07-31T02:11:14;3.10;;;2.47;;
78985;SDS011;68384;55.750;48.746;2023-07-31T02:12:17;4.43;;;2.60;;
78985;SDS011;68384;55.750;48.746;2023-07-31T02:13:22;4.10;;;2.85;;
78985;SDS011;68384;55.750;48.746;2023-07-31T02:14:26;3.67;;;2.58;;
78985;SDS011;68384;55.750;48.746;2023-07-31T02:15:30;3.70;;;2.67;;
78985;SDS011;68384;55.750;48.746;2023-07-31T02:16:33;5.53;;;2.70;;
78985;SDS011;68384;55.750;48.746;2023-07-31T02:17:37;3.15;;;2.33;;
78985;SDS011;68384;55.750;48.746;2023-07-31T02:18:41;5.78;;;2.60;;
78985;SDS011;68384;55.750;48.746;2023-07-31T02:19:45;3.22;;;2.20;;
78985;SDS011;68384;55.750;48.746;2023-07-31T02:20:48;5.40;;;2.90;;
78985;SDS011;68384;55.750;48.746;2023-07-31T02:21:54;3.80;;;2.63;;
78985;SDS011;68384;55.750;48.746;2023-07-31T02:22:57;4.30;;;2.47;;
78985;SDS011;68384;55.750;48.746;2023-07-31T02:24:01;3.42;;;2.50;;
78985;SDS011;68384;55.750;48.746;2023-07-31T02:25:04;5.25;;;2.42;;
78985;SDS011;68384;55.750;48.746;2023-07-31T02:26:08;3.03;;;2.55;;
78985;SDS011;68384;55.750;48.746;2023-07-31T02:27:11;4.05;;;2.60;;
78985;SDS011;68384;55.750;48.746;2023-07-31T02:28:15;3.75;;;2.45;;
78985;SDS011;68384;55.750;48.746;2023-07-31T02:29:19;4.13;;;2.63;;
78985;SDS011;68384;55.750;48.746;2023-07-31T02:30:23;2.83;;;2.38;;
78985;SDS011;68384;55.750;48.746;2023-07-31T02:31:26;4.78;;;2.47;;
78985;SDS011;68384;55.750;48.746;2023-07-31T02:32:30;6.32;;;2.28;;
78985;SDS011;68384;55.750;48.746;2023-07-31T02:33:33;3.53;;;2.33;;
78985;SDS011;68384;55.750;48.746;2023-07-31T02:34:37;2.97;;;2.10;;
78985;SDS011;68384;55.750;48.746;2023-07-31T02:35:39;3.10;;;2.20;;
78985;SDS011;68384;55.750;48.746;2023-07-31T02:36:43;3.10;;;2.10;;
78985;SDS011;68384;55.750;48.746;2023-07-31T02:37:46;4.22;;;2.53;;
78985;SDS011;68384;55.750;48.746;2023-07-31T02:38:50;4.10;;;2.03;;
78985;SDS011;68384;55.750;48.746;2023-07-31T02:39:53;3.97;;;1.90;;
78985;SDS011;68384;55.750;48.746;2023-07-31T02:40:57;2.88;;;2.20;;
78985;SDS011;68384;55.750;48.746;2023-07-31T02:42:02;2.55;;;1.90;;
78985;SDS011;68384;55.750;48.746;2023-07-31T02:43:06;2.60;;;1.77;;
78985;SDS011;68384;55.750;48.746;2023-07-31T02:44:09;2.83;;;2.00;;
78985;SDS011;68384;55.750;48.746;2023-07-31T02:45:17;4.10;;;2.00;;
78985;SDS011;68384;55.750;48.746;2023-07-31T02:46:21;4.30;;;2.10;;
78985;SDS011;68384;55.750;48.746;2023-07-31T02:47:26;5.18;;;2.08;;
78985;SDS011;68384;55.750;48.746;2023-07-31T02:48:29;2.85;;;2.05;;
78985;SDS011;68384;55.750;48.746;2023-07-31T02:49:33;3.72;;;2.03;;
78985;SDS011;68384;55.750;48.746;2023-07-31T02:50:36;4.43;;;2.10;;
78985;SDS011;68384;55.750;48.746;2023-07-31T02:51:40;4.10;;;2.42;;
78985;SDS011;68384;55.750;48.746;2023-07-31T02:52:43;3.33;;;2.22;;
78985;SDS011;68384;55.750;48.746;2023-07-31T02:53:47;4.53;;;2.40;;
78985;SDS011;68384;55.750;48.746;2023-07-31T02:54:50;3.58;;;2.35;;
78985;SDS011;68384;55.750;48.746;2023-07-31T02:55:54;4.15;;;2.47;;
78985;SDS011;68384;55.750;48.746;2023-07-31T02:56:57;4.97;;;2.65;;
78985;SDS011;68384;55.750;48.746;2023-07-31T02:58:02;6.13;;;2.60;;
78985;SDS011;68384;55.750;48.746;2023-07-31T02:59:05;4.72;;;2.75;;
78985;SDS011;68384;55.750;48.746;2023-07-31T03:00:09;5.90;;;2.78;;
78985;SDS011;68384;55.750;48.746;2023-07-31T03:01:14;3.60;;;2.15;;
78985;SDS011;68384;55.750;48.746;2023-07-31T03:02:18;3.10;;;2.28;;
78985;SDS011;68384;55.750;48.746;2023-07-31T03:03:21;5.95;;;2.53;;
78985;SDS011;68384;55.750;48.746;2023-07-31T03:04:25;3.42;;;2.35;;
78985;SDS011;68384;55.750;48.746;2023-07-31T03:05:28;3.28;;;2.30;;
78985;SDS011;68384;55.750;48.746;2023-07-31T03:06:31;5.63;;;2.40;;
78985;SDS011;68384;55.750;48.746;2023-07-31T03:07:35;4.18;;;2.40;;
78985;SDS011;68384;55.750;48.746;2023-07-31T03:08:38;2.95;;;2.40;;
78985;SDS011;68384;55.750;48.746;2023-07-31T03:09:42;5.38;;;2.60;;
78985;SDS011;68384;55.750;48.746;2023-07-31T03:10:45;5.85;;;2.50;;
78985;SDS011;68384;55.750;48.746;2023-07-31T03:11:49;2.63;;;2.22;;
78985;SDS011;68384;55.750;48.746;2023-07-31T03:12:52;3.05;;;2.20;;
78985;SDS011;68384;55.750;48.746;2023-07-31T03:13:55;4.07;;;2.40;;
78985;SDS011;68384;55.750;48.746;2023-07-31T03:14:58;4.03;;;2.30;;
78985;SDS011;68384;55.750;48.746;2023-07-31T03:16:03;3.45;;;2.30;;
78985;SDS011;68384;55.750;48.746;2023-07-31T03:17:07;3.47;;;2.40;;
78985;SDS011;68384;55.750;48.746;2023-07-31T03:18:11;3.55;;;2.25;;
78985;SDS011;68384;55.750;48.746;2023-07-31T03:19:14;4.43;;;2.30;;
78985;SDS011;68384;55.750;48.746;2023-07-31T03:20:18;5.70;;;2.50;;
78985;SDS011;68384;55.750;48.746;2023-07-31T03:21:21;3.28;;;2.10;;
78985;SDS011;68384;55.750;48.746;2023-07-31T03:22:25;4.00;;;2.10;;
78985;SDS011;68384;55.750;48.746;2023-07-31T03:23:28;6.63;;;2.25;;
78985;SDS011;68384;55.750;48.746;2023-07-31T03:24:32;2.75;;;2.28;;
78985;SDS011;68384;55.750;48.746;2023-07-31T03:25:35;3.88;;;2.40;;
78985;SDS011;68384;55.750;48.746;2023-07-31T03:26:39;3.58;;;2.10;;
78985;SDS011;68384;55.750;48.746;2023-07-31T03:27:43;4.35;;;2.20;;
78985;SDS011;68384;55.750;48.746;2023-07-31T03:28:47;7.85;;;2.40;;
78985;SDS011;68384;55.750;48.746;2023-07-31T03:29:51;6.35;;;2.30;;
78985;SDS011;68384;55.750;48.746;2023-07-31T03:30:55;8.77;;;2.20;;
78985;SDS011;68384;55.750;48.746;2023-07-31T03:31:58;3.88;;;1.80;;
78985;SDS011;68384;55.750;48.746;2023-07-31T03:33:04;2.47;;;1.90;;
78985;SDS011;68384;55.750;48.746;2023-07-31T03:34:07;3.83;;;1.80;;
78985;SDS011;68384;55.750;48.746;2023-07-31T03:35:11;4.00;;;2.15;;
78985;SDS011;68384;55.750;48.746;2023-07-31T03:36:14;3.35;;;1.77;;
78985;SDS011;68384;55.750;48.746;2023-07-31T03:37:18;3.72;;;1.85;;
78985;SDS011;68384;55.750;48.746;2023-07-31T03:38:21;4.38;;;1.90;;
78985;SDS011;68384;55.750;48.746;2023-07-31T03:39:25;2.78;;;2.00;;
78985;SDS011;68384;55.750;48.746;2023-07-31T03:40:28;2.30;;;1.70;;
78985;SDS011;68384;55.750;48.746;2023-07-31T03:41:32;3.50;;;1.70;;
78985;SDS011;68384;55.750;48.746;2023-07-31T03:42:35;2.25;;;1.63;;
78985;SDS011;68384;55.750;48.746;2023-07-31T03:43:38;4.95;;;2.08;;
78985;SDS011;68384;55.750;48.746;2023-07-31T03:44:42;2.65;;;1.67;;
78985;SDS011;68384;55.750;48.746;2023-07-31T03:45:46;2.70;;;1.73;;
78985;SDS011;68384;55.750;48.746;2023-07-31T03:46:48;3.15;;;1.70;;
78985;SDS011;68384;55.750;48.746;2023-07-31T03:47:53;4.45;;;1.52;;
78985;SDS011;68384;55.750;48.746;2023-07-31T03:49:00;2.97;;;1.52;;
78985;SDS011;68384;55.750;48.746;2023-07-31T03:50:05;2.20;;;1.33;;
78985;SDS011;68384;55.750;48.746;2023-07-31T03:51:09;2.05;;;1.40;;
78985;SDS011;68384;55.750;48.746;2023-07-31T03:52:13;2.25;;;1.50;;
78985;SDS011;68384;55.750;48.746;2023-07-31T03:53:15;2.15;;;1.33;;
78985;SDS011;68384;55.750;48.746;2023-07-31T03:54:19;3.55;;;1.63;;
78985;SDS011;68384;55.750;48.746;2023-07-31T03:55:22;2.45;;;1.50;;
78985;SDS011;68384;55.750;48.746;2023-07-31T03:56:26;3.72;;;1.52;;
78985;SDS011;68384;55.750;48.746;2023-07-31T03:57:29;2.70;;;1.33;;
78985;SDS011;68384;55.750;48.746;2023-07-31T03:58:34;2.33;;;1.40;;
78985;SDS011;68384;55.750;48.746;2023-07-31T04:00:41;5.25;;;1.40;;
78985;SDS011;68384;55.750;48.746;2023-07-31T04:01:44;3.67;;;1.55;;
78985;SDS011;68384;55.750;48.746;2023-07-31T04:02:48;4.78;;;1.83;;
78985;SDS011;68384;55.750;48.746;2023-07-31T04:03:51;2.45;;;1.48;;
78985;SDS011;68384;55.750;48.746;2023-07-31T04:04:55;5.55;;;1.63;;
78985;SDS011;68384;55.750;48.746;2023-07-31T04:05:59;7.25;;;1.60;;
78985;SDS011;68384;55.750;48.746;2023-07-31T04:07:02;3.53;;;1.42;;
78985;SDS011;68384;55.750;48.746;2023-07-31T04:08:06;3.22;;;1.42;;
78985;SDS011;68384;55.750;48.746;2023-07-31T04:09:09;2.83;;;1.40;;
78985;SDS011;68384;55.750;48.746;2023-07-31T04:10:13;5.10;;;1.50;;
78985;SDS011;68384;55.750;48.746;2023-07-31T04:11:16;3.78;;;1.60;;
78985;SDS011;68384;55.750;48.746;2023-07-31T04:12:19;3.47;;;1.40;;
78985;SDS011;68384;55.750;48.746;2023-07-31T04:13:23;3.13;;;1.50;;
78985;SDS011;68384;55.750;48.746;2023-07-31T04:14:25;3.22;;;1.60;;
78985;SDS011;68384;55.750;48.746;2023-07-31T04:15:29;3.38;;;1.40;;
78985;SDS011;68384;55.750;48.746;2023-07-31T04:16:32;2.97;;;1.40;;
78985;SDS011;68384;55.750;48.746;2023-07-31T04:17:36;3.58;;;1.50;;
78985;SDS011;68384;55.750;48.746;2023-07-31T04:18:39;3.83;;;1.58;;
78985;SDS011;68384;55.750;48.746;2023-07-31T04:19:43;3.42;;;1.63;;
78985;SDS011;68384;55.750;48.746;2023-07-31T04:20:48;2.30;;;1.40;;
78985;SDS011;68384;55.750;48.746;2023-07-31T04:21:51;3.67;;;1.35;;
78985;SDS011;68384;55.750;48.746;2023-07-31T04:22:54;2.78;;;1.50;;
78985;SDS011;68384;55.750;48.746;2023-07-31T04:23:58;2.97;;;1.35;;
78985;SDS011;68384;55.750;48.746;2023-07-31T04:25:01;3.13;;;1.40;;
78985;SDS011;68384;55.750;48.746;2023-07-31T04:26:05;2.22;;;1.30;;
78985;SDS011;68384;55.750;48.746;2023-07-31T04:27:08;2.42;;;1.30;;
78985;SDS011;68384;55.750;48.746;2023-07-31T04:28:11;2.97;;;1.20;;
78985;SDS011;68384;55.750;48.746;2023-07-31T04:29:15;2.63;;;1.42;;
78985;SDS011;68384;55.750;48.746;2023-07-31T04:30:19;2.28;;;1.10;;
78985;SDS011;68384;55.750;48.746;2023-07-31T04:31:21;3.53;;;1.23;;
78985;SDS011;68384;55.750;48.746;2023-07-31T04:32:25;4.40;;;1.38;;
78985;SDS011;68384;55.750;48.746;2023-07-31T04:33:29;2.15;;;1.20;;
78985;SDS011;68384;55.750;48.746;2023-07-31T04:34:32;4.25;;;1.40;;
78985;SDS011;68384;55.750;48.746;2023-07-31T04:35:35;2.55;;;1.40;;
78985;SDS011;68384;55.750;48.746;2023-07-31T04:36:41;2.55;;;1.40;;
78985;SDS011;68384;55.750;48.746;2023-07-31T04:37:43;2.33;;;1.40;;
78985;SDS011;68384;55.750;48.746;2023-07-31T04:38:50;2.20;;;1.40;;
78985;SDS011;68384;55.750;48.746;2023-07-31T04:39:53;2.40;;;1.52;;
78985;SDS011;68384;55.750;48.746;2023-07-31T04:40:57;2.10;;;1.20;;
78985;SDS011;68384;55.750;48.746;2023-07-31T04:42:00;3.35;;;1.50;;
78985;SDS011;68384;55.750;48.746;2023-07-31T04:43:04;3.65;;;1.58;;
78985;SDS011;68384;55.750;48.746;2023-07-31T04:44:07;2.00;;;1.30;;
78985;SDS011;68384;55.750;48.746;2023-07-31T04:45:13;3.50;;;1.70;;
78985;SDS011;68384;55.750;48.746;2023-07-31T04:46:17;4.07;;;1.73;;
78985;SDS011;68384;55.750;48.746;2023-07-31T04:47:20;2.17;;;1.70;;
78985;SDS011;68384;55.750;48.746;2023-07-31T04:48:23;3.10;;;1.60;;
78985;SDS011;68384;55.750;48.746;2023-07-31T04:49:27;3.55;;;1.75;;
78985;SDS011;68384;55.750;48.746;2023-07-31T04:50:30;4.28;;;1.75;;
78985;SDS011;68384;55.750;48.746;2023-07-31T04:51:35;2.55;;;1.40;;
78985;SDS011;68384;55.750;48.746;2023-07-31T04:52:39;3.90;;;1.60;;
78985;SDS011;68384;55.750;48.746;2023-07-31T04:53:43;1.90;;;1.17;;
78985;SDS011;68384;55.750;48.746;2023-07-31T04:54:46;3.95;;;1.63;;
78985;SDS011;68384;55.750;48.746;2023-07-31T04:55:50;4.80;;;1.70;;
78985;SDS011;68384;55.750;48.746;2023-07-31T04:56:53;2.45;;;1.42;;
78985;SDS011;68384;55.750;48.746;2023-07-31T04:57:57;2.67;;;1.67;;
78985;SDS011;68384;55.750;48.746;2023-07-31T05:00:05;5.32;;;1.50;;
78985;SDS011;68384;55.750;48.746;2023-07-31T05:01:08;6.45;;;1.40;;
78985;SDS011;68384;55.750;48.746;2023-07-31T05:02:12;2.58;;;1.60;;
78985;SDS011;68384;55.750;48.746;2023-07-31T05:03:15;4.28;;;1.30;;
78985;SDS011;68384;55.750;48.746;2023-07-31T05:04:19;3.55;;;1.25;;
78985;SDS011;68384;55.750;48.746;2023-07-31T05:05:22;2.35;;;1.40;;
78985;SDS011;68384;55.750;48.746;2023-07-31T05:06:26;2.45;;;1.20;;
78985;SDS011;68384;55.750;48.746;2023-07-31T05:07:29;2.35;;;1.40;;
78985;SDS011;68384;55.750;48.746;2023-07-31T05:08:35;3.97;;;1.60;;
78985;SDS011;68384;55.750;48.746;2023-07-31T05:09:38;3.05;;;1.20;;
78985;SDS011;68384;55.750;48.746;2023-07-31T05:10:41;3.00;;;1.33;;
78985;SDS011;68384;55.750;48.746;2023-07-31T05:11:45;3.35;;;1.30;;
78985;SDS011;68384;55.750;48.746;2023-07-31T05:12:48;3.25;;;1.38;;
78985;SDS011;68384;55.750;48.746;2023-07-31T05:13:51;2.20;;;1.20;;
78985;SDS011;68384;55.750;48.746;2023-07-31T05:14:55;3.20;;;1.20;;
78985;SDS011;68384;55.750;48.746;2023-07-31T05:15:58;2.25;;;1.23;;
78985;SDS011;68384;55.750;48.746;2023-07-31T05:17:04;2.25;;;1.42;;
78985;SDS011;68384;55.750;48.746;2023-07-31T05:18:07;2.53;;;1.15;;
78985;SDS011;68384;55.750;48.746;2023-07-31T05:19:11;1.85;;;1.25;;
78985;SDS011;68384;55.750;48.746;2023-07-31T05:20:14;3.08;;;1.30;;
78985;SDS011;68384;55.750;48.746;2023-07-31T05:21:18;3.00;;;1.20;;
78985;SDS011;68384;55.750;48.746;2023-07-31T05:22:21;2.03;;;1.20;;
78985;SDS011;68384;55.750;48.746;2023-07-31T05:23:24;1.95;;;1.33;;
78985;SDS011;68384;55.750;48.746;2023-07-31T05:24:29;2.83;;;1.55;;
78985;SDS011;68384;55.750;48.746;2023-07-31T05:25:33;2.03;;;1.25;;
78985;SDS011;68384;55.750;48.746;2023-07-31T05:26:35;2.45;;;1.38;;
78985;SDS011;68384;55.750;48.746;2023-07-31T05:27:40;2.63;;;1.52;;
78985;SDS011;68384;55.750;48.746;2023-07-31T05:28:43;2.50;;;1.20;;
78985;SDS011;68384;55.750;48.746;2023-07-31T05:29:46;2.58;;;1.40;;
78985;SDS011;68384;55.750;48.746;2023-07-31T05:30:49;4.20;;;1.35;;
78985;SDS011;68384;55.750;48.746;2023-07-31T05:31:53;4.05;;;1.58;;
78985;SDS011;68384;55.750;48.746;2023-07-31T05:32:56;4.38;;;1.63;;
78985;SDS011;68384;55.750;48.746;2023-07-31T05:34:00;3.85;;;1.30;;
78985;SDS011;68384;55.750;48.746;2023-07-31T05:35:03;2.88;;;1.40;;
78985;SDS011;68384;55.750;48.746;2023-07-31T05:36:07;4.32;;;1.30;;
78985;SDS011;68384;55.750;48.746;2023-07-31T05:37:11;3.03;;;1.50;;
78985;SDS011;68384;55.750;48.746;2023-07-31T05:38:14;3.35;;;1.30;;
78985;SDS011;68384;55.750;48.746;2023-07-31T05:39:18;3.05;;;1.38;;
78985;SDS011;68384;55.750;48.746;2023-07-31T05:41:26;3.08;;;1.33;;
78985;SDS011;68384;55.750;48.746;2023-07-31T05:42:29;2.15;;;1.40;;
78985;SDS011;68384;55.750;48.746;2023-07-31T05:43:33;2.70;;;1.30;;
78985;SDS011;68384;55.750;48.746;2023-07-31T05:44:36;3.45;;;1.45;;
78985;SDS011;68384;55.750;48.746;2023-07-31T05:45:40;3.75;;;1.60;;
78985;SDS011;68384;55.750;48.746;2023-07-31T05:46:44;2.53;;;1.20;;
78985;SDS011;68384;55.750;48.746;2023-07-31T05:47:48;3.63;;;1.27;;
78985;SDS011;68384;55.750;48.746;2023-07-31T05:48:51;2.28;;;1.30;;
78985;SDS011;68384;55.750;48.746;2023-07-31T05:49:55;4.45;;;1.30;;
78985;SDS011;68384;55.750;48.746;2023-07-31T05:50:58;3.05;;;1.50;;
78985;SDS011;68384;55.750;48.746;2023-07-31T05:52:02;3.05;;;1.60;;
78985;SDS011;68384;55.750;48.746;2023-07-31T05:53:05;2.65;;;1.15;;
78985;SDS011;68384;55.750;48.746;2023-07-31T05:54:10;2.00;;;1.20;;
78985;SDS011;68384;55.750;48.746;2023-07-31T05:55:12;3.10;;;1.50;;
78985;SDS011;68384;55.750;48.746;2023-07-31T05:56:18;2.83;;;1.50;;
78985;SDS011;68384;55.750;48.746;2023-07-31T05:57:21;3.40;;;1.42;;
78985;SDS011;68384;55.750;48.746;2023-07-31T05:58:24;2.50;;;1.40;;
78985;SDS011;68384;55.750;48.746;2023-07-31T05:59:27;2.17;;;1.10;;
78985;SDS011;68384;55.750;48.746;2023-07-31T06:00:35;2.13;;;1.23;;
78985;SDS011;68384;55.750;48.746;2023-07-31T06:01:37;3.47;;;1.27;;
78985;SDS011;68384;55.750;48.746;2023-07-31T06:02:41;6.43;;;1.50;;
78985;SDS011;68384;55.750;48.746;2023-07-31T06:03:44;7.65;;;1.98;;
78985;SDS011;68384;55.750;48.746;2023-07-31T06:04:48;2.90;;;1.25;;
78985;SDS011;68384;55.750;48.746;2023-07-31T06:05:52;3.33;;;2.03;;
78985;SDS011;68384;55.750;48.746;2023-07-31T06:06:56;2.55;;;1.20;;
78985;SDS011;68384;55.750;48.746;2023-07-31T06:07:59;3.67;;;1.13;;
78985;SDS011;68384;55.750;48.746;2023-07-31T06:09:03;2.20;;;1.30;;
78985;SDS011;68384;55.750;48.746;2023-07-31T06:10:06;2.88;;;0.88;;
78985;SDS011;68384;55.750;48.746;2023-07-31T06:11:11;2.53;;;0.95;;
78985;SDS011;68384;55.750;48.746;2023-07-31T06:12:15;2.05;;;1.17;;
78985;SDS011;68384;55.750;48.746;2023-07-31T06:13:20;1.98;;;0.98;;
78985;SDS011;68384;55.750;48.746;2023-07-31T06:14:23;3.88;;;1.20;;
78985;SDS011;68384;55.750;48.746;2023-07-31T06:15:28;1.70;;;0.70;;
78985;SDS011;68384;55.750;48.746;2023-07-31T06:16:30;2.20;;;1.10;;
78985;SDS011;68384;55.750;48.746;2023-07-31T06:17:34;2.92;;;1.38;;
78985;SDS011;68384;55.750;48.746;2023-07-31T06:18:37;5.60;;;2.13;;
78985;SDS011;68384;55.750;48.746;2023-07-31T06:19:41;3.00;;;1.10;;
78985;SDS011;68384;55.750;48.746;2023-07-31T06:20:44;2.05;;;1.42;;
78985;SDS011;68384;55.750;48.746;2023-07-31T06:21:49;2.92;;;1.23;;
78985;SDS011;68384;55.750;48.746;2023-07-31T06:22:52;2.50;;;1.30;;
78985;SDS011;68384;55.750;48.746;2023-07-31T06:23:56;6.78;;;1.52;;
78985;SDS011;68384;55.750;48.746;2023-07-31T06:24:59;3.15;;;1.52;;
78985;SDS011;68384;55.750;48.746;2023-07-31T06:26:03;5.50;;;1.50;;